Bond, Illinois
Current Conditions -  °F | °C
As of 12:53 PM on Thursday 30 Oct 2014 (Local Time) from KLWV Reporting Station
Clear Clear  
Wind Chill: 54°   Ceiling: Unl
Heat Index: 54°   Visibility: 10mi
Dew Point: 31°   Wind: 6mph
Humidity: 41%   Direction: NA
Pressure: 30.13"   Gusts: NA
Location:  38.7501°N, 87.6141°W
Report Text: KLWV 301753Z AUTO VRB05KT 10SM CLR 12/M01 A3013 RMK AO2 SLP204 T01221006 10128 20006 58020
Loading
Personal Weather Stations






























Interactive Weather Map New forecast layout! Learn more

10-Day Weather Forecast

Advertisements
Track Severe Weather on mobile